sensor_id;sensor_type;location;lat;lon;timestamp;P1;durP1;ratioP1;P2;durP2;ratioP2
47349;SDS011;33088;51.982;5.872;2023-03-02T00:01:23;34.50;;;20.13;;
47349;SDS011;33088;51.982;5.872;2023-03-02T00:03:52;45.20;;;21.13;;
47349;SDS011;33088;51.982;5.872;2023-03-02T00:06:19;46.85;;;24.63;;
47349;SDS011;33088;51.982;5.872;2023-03-02T00:08:45;42.47;;;22.52;;
47349;SDS011;33088;51.982;5.872;2023-03-02T00:11:11;44.15;;;24.02;;
47349;SDS011;33088;51.982;5.872;2023-03-02T00:13:39;50.58;;;24.85;;
47349;SDS011;33088;51.982;5.872;2023-03-02T00:16:05;49.92;;;25.20;;
47349;SDS011;33088;51.982;5.872;2023-03-02T00:18:31;52.25;;;28.60;;
47349;SDS011;33088;51.982;5.872;2023-03-02T00:20:57;56.95;;;29.10;;
47349;SDS011;33088;51.982;5.872;2023-03-02T00:23:23;50.08;;;26.48;;
47349;SDS011;33088;51.982;5.872;2023-03-02T00:25:49;61.97;;;30.35;;
47349;SDS011;33088;51.982;5.872;2023-03-02T00:28:14;59.25;;;29.73;;
47349;SDS011;33088;51.982;5.872;2023-03-02T00:30:40;62.25;;;31.08;;
47349;SDS011;33088;51.982;5.872;2023-03-02T00:33:06;69.00;;;34.38;;
47349;SDS011;33088;51.982;5.872;2023-03-02T00:35:39;69.13;;;33.95;;
47349;SDS011;33088;51.982;5.872;2023-03-02T00:38:05;77.50;;;35.17;;
47349;SDS011;33088;51.982;5.872;2023-03-02T00:40:33;88.65;;;37.45;;
47349;SDS011;33088;51.982;5.872;2023-03-02T00:42:59;87.30;;;38.05;;
47349;SDS011;33088;51.982;5.872;2023-03-02T00:45:24;81.65;;;36.53;;
47349;SDS011;33088;51.982;5.872;2023-03-02T00:47:50;75.90;;;36.47;;
47349;SDS011;33088;51.982;5.872;2023-03-02T00:50:16;90.35;;;38.72;;
47349;SDS011;33088;51.982;5.872;2023-03-02T00:52:42;86.18;;;40.20;;
47349;SDS011;33088;51.982;5.872;2023-03-02T00:55:07;85.75;;;38.80;;
47349;SDS011;33088;51.982;5.872;2023-03-02T00:57:33;90.68;;;39.08;;
47349;SDS011;33088;51.982;5.872;2023-03-02T00:59:59;89.10;;;38.40;;
47349;SDS011;33088;51.982;5.872;2023-03-02T01:02:31;87.35;;;40.25;;
47349;SDS011;33088;51.982;5.872;2023-03-02T01:04:56;84.32;;;37.75;;
47349;SDS011;33088;51.982;5.872;2023-03-02T01:07:22;89.57;;;38.58;;
47349;SDS011;33088;51.982;5.872;2023-03-02T01:09:50;81.68;;;37.85;;
47349;SDS011;33088;51.982;5.872;2023-03-02T01:12:16;86.40;;;39.00;;
47349;SDS011;33088;51.982;5.872;2023-03-02T01:14:44;86.97;;;36.70;;
47349;SDS011;33088;51.982;5.872;2023-03-02T01:17:12;74.15;;;35.38;;
47349;SDS011;33088;51.982;5.872;2023-03-02T01:19:39;79.90;;;35.70;;
47349;SDS011;33088;51.982;5.872;2023-03-02T01:22:05;75.38;;;34.35;;
47349;SDS011;33088;51.982;5.872;2023-03-02T01:24:31;73.80;;;32.78;;
47349;SDS011;33088;51.982;5.872;2023-03-02T01:26:57;85.53;;;36.60;;
47349;SDS011;33088;51.982;5.872;2023-03-02T01:29:24;78.63;;;36.95;;
47349;SDS011;33088;51.982;5.872;2023-03-02T01:31:49;79.57;;;34.78;;
47349;SDS011;33088;51.982;5.872;2023-03-02T01:34:15;71.72;;;33.88;;
47349;SDS011;33088;51.982;5.872;2023-03-02T01:36:42;82.80;;;35.42;;
47349;SDS011;33088;51.982;5.872;2023-03-02T01:39:11;75.50;;;33.53;;
47349;SDS011;33088;51.982;5.872;2023-03-02T01:41:41;71.80;;;32.08;;
47349;SDS011;33088;51.982;5.872;2023-03-02T01:44:31;67.07;;;32.22;;
47349;SDS011;33088;51.982;5.872;2023-03-02T01:49:58;70.13;;;32.45;;
47349;SDS011;33088;51.982;5.872;2023-03-02T01:52:31;66.03;;;32.50;;
47349;SDS011;33088;51.982;5.872;2023-03-02T01:55:00;82.65;;;36.50;;
47349;SDS011;33088;51.982;5.872;2023-03-02T01:57:31;70.30;;;35.78;;
47349;SDS011;33088;51.982;5.872;2023-03-02T02:00:00;80.30;;;35.25;;
47349;SDS011;33088;51.982;5.872;2023-03-02T02:02:37;69.57;;;34.28;;
47349;SDS011;33088;51.982;5.872;2023-03-02T02:05:07;79.57;;;37.13;;
47349;SDS011;33088;51.982;5.872;2023-03-02T02:07:42;74.03;;;33.78;;
47349;SDS011;33088;51.982;5.872;2023-03-02T02:10:08;72.68;;;33.17;;
47349;SDS011;33088;51.982;5.872;2023-03-02T02:12:35;77.15;;;32.88;;
47349;SDS011;33088;51.982;5.872;2023-03-02T02:15:01;67.13;;;32.20;;
47349;SDS011;33088;51.982;5.872;2023-03-02T02:17:27;61.28;;;26.88;;
47349;SDS011;33088;51.982;5.872;2023-03-02T02:20:03;55.50;;;27.48;;
47349;SDS011;33088;51.982;5.872;2023-03-02T02:22:46;55.40;;;27.42;;
47349;SDS011;33088;51.982;5.872;2023-03-02T02:28:30;54.15;;;25.58;;
47349;SDS011;33088;51.982;5.872;2023-03-02T02:33:52;51.25;;;24.45;;
47349;SDS011;33088;51.982;5.872;2023-03-02T02:36:23;43.50;;;22.33;;
47349;SDS011;33088;51.982;5.872;2023-03-02T02:38:59;44.42;;;22.83;;
47349;SDS011;33088;51.982;5.872;2023-03-02T02:41:32;42.40;;;21.92;;
47349;SDS011;33088;51.982;5.872;2023-03-02T02:44:01;44.72;;;20.85;;
47349;SDS011;33088;51.982;5.872;2023-03-02T02:46:26;43.95;;;22.60;;
47349;SDS011;33088;51.982;5.872;2023-03-02T02:48:53;40.90;;;19.85;;
47349;SDS011;33088;51.982;5.872;2023-03-02T02:51:20;42.65;;;21.48;;
47349;SDS011;33088;51.982;5.872;2023-03-02T02:53:57;44.78;;;22.60;;
47349;SDS011;33088;51.982;5.872;2023-03-02T02:56:35;51.15;;;23.65;;
47349;SDS011;33088;51.982;5.872;2023-03-02T02:59:05;55.13;;;24.05;;
47349;SDS011;33088;51.982;5.872;2023-03-02T03:01:37;60.53;;;27.88;;
47349;SDS011;33088;51.982;5.872;2023-03-02T03:04:04;54.70;;;26.45;;
47349;SDS011;33088;51.982;5.872;2023-03-02T03:06:32;62.88;;;29.35;;
47349;SDS011;33088;51.982;5.872;2023-03-02T03:09:06;63.55;;;28.92;;
47349;SDS011;33088;51.982;5.872;2023-03-02T03:11:38;68.17;;;28.80;;
47349;SDS011;33088;51.982;5.872;2023-03-02T03:14:12;68.25;;;29.65;;
47349;SDS011;33088;51.982;5.872;2023-03-02T03:16:40;65.53;;;30.60;;
47349;SDS011;33088;51.982;5.872;2023-03-02T03:19:26;63.03;;;30.05;;
47349;SDS011;33088;51.982;5.872;2023-03-02T03:21:56;67.90;;;28.92;;
47349;SDS011;33088;51.982;5.872;2023-03-02T03:24:26;68.47;;;29.17;;
47349;SDS011;33088;51.982;5.872;2023-03-02T03:26:54;79.97;;;31.58;;
47349;SDS011;33088;51.982;5.872;2023-03-02T03:29:21;66.93;;;29.25;;
47349;SDS011;33088;51.982;5.872;2023-03-02T03:31:50;72.93;;;31.88;;
47349;SDS011;33088;51.982;5.872;2023-03-02T03:34:17;65.43;;;28.83;;
47349;SDS011;33088;51.982;5.872;2023-03-02T03:36:44;69.80;;;31.17;;
47349;SDS011;33088;51.982;5.872;2023-03-02T03:39:10;70.47;;;29.05;;
47349;SDS011;33088;51.982;5.872;2023-03-02T03:41:37;72.10;;;30.90;;
47349;SDS011;33088;51.982;5.872;2023-03-02T03:44:04;71.25;;;31.20;;
47349;SDS011;33088;51.982;5.872;2023-03-02T03:46:33;78.88;;;32.53;;
47349;SDS011;33088;51.982;5.872;2023-03-02T03:48:59;74.07;;;30.85;;
47349;SDS011;33088;51.982;5.872;2023-03-02T03:51:26;74.82;;;30.73;;
47349;SDS011;33088;51.982;5.872;2023-03-02T03:53:52;85.00;;;33.40;;
47349;SDS011;33088;51.982;5.872;2023-03-02T03:56:27;82.60;;;31.83;;
47349;SDS011;33088;51.982;5.872;2023-03-02T03:58:54;80.40;;;30.67;;
47349;SDS011;33088;51.982;5.872;2023-03-02T04:01:33;82.95;;;32.72;;
47349;SDS011;33088;51.982;5.872;2023-03-02T04:04:00;80.63;;;31.08;;
47349;SDS011;33088;51.982;5.872;2023-03-02T04:06:26;81.88;;;31.83;;
47349;SDS011;33088;51.982;5.872;2023-03-02T04:08:52;78.18;;;32.15;;
47349;SDS011;33088;51.982;5.872;2023-03-02T04:11:18;78.90;;;31.85;;
47349;SDS011;33088;51.982;5.872;2023-03-02T04:13:44;80.28;;;32.67;;
47349;SDS011;33088;51.982;5.872;2023-03-02T04:16:10;76.03;;;30.20;;
47349;SDS011;33088;51.982;5.872;2023-03-02T04:18:36;76.30;;;32.70;;
47349;SDS011;33088;51.982;5.872;2023-03-02T04:21:02;77.03;;;30.77;;
47349;SDS011;33088;51.982;5.872;2023-03-02T04:23:27;82.85;;;31.20;;
47349;SDS011;33088;51.982;5.872;2023-03-02T04:25:53;78.07;;;31.40;;
47349;SDS011;33088;51.982;5.872;2023-03-02T04:28:20;82.32;;;31.17;;
47349;SDS011;33088;51.982;5.872;2023-03-02T04:30:46;83.30;;;34.08;;
47349;SDS011;33088;51.982;5.872;2023-03-02T04:33:12;73.82;;;31.98;;
47349;SDS011;33088;51.982;5.872;2023-03-02T04:35:43;70.57;;;30.35;;
47349;SDS011;33088;51.982;5.872;2023-03-02T04:38:08;70.40;;;31.40;;
47349;SDS011;33088;51.982;5.872;2023-03-02T04:40:34;73.68;;;30.48;;
47349;SDS011;33088;51.982;5.872;2023-03-02T04:43:00;69.15;;;28.80;;
47349;SDS011;33088;51.982;5.872;2023-03-02T04:45:26;69.85;;;29.45;;
47349;SDS011;33088;51.982;5.872;2023-03-02T04:47:52;66.55;;;28.17;;
47349;SDS011;33088;51.982;5.872;2023-03-02T04:50:17;62.88;;;27.58;;
47349;SDS011;33088;51.982;5.872;2023-03-02T04:52:43;65.65;;;28.63;;
47349;SDS011;33088;51.982;5.872;2023-03-02T04:55:10;63.50;;;27.38;;
47349;SDS011;33088;51.982;5.872;2023-03-02T04:57:43;62.17;;;27.20;;
47349;SDS011;33088;51.982;5.872;2023-03-02T05:00:09;70.38;;;28.50;;
47349;SDS011;33088;51.982;5.872;2023-03-02T05:02:35;60.08;;;26.08;;
47349;SDS011;33088;51.982;5.872;2023-03-02T05:05:00;62.80;;;25.58;;
47349;SDS011;33088;51.982;5.872;2023-03-02T05:07:26;63.50;;;24.48;;
47349;SDS011;33088;51.982;5.872;2023-03-02T05:09:52;56.83;;;24.70;;
47349;SDS011;33088;51.982;5.872;2023-03-02T05:12:17;53.28;;;23.63;;
47349;SDS011;33088;51.982;5.872;2023-03-02T05:14:45;58.10;;;24.30;;
47349;SDS011;33088;51.982;5.872;2023-03-02T05:17:11;52.78;;;22.02;;
47349;SDS011;33088;51.982;5.872;2023-03-02T05:19:37;51.22;;;23.13;;
47349;SDS011;33088;51.982;5.872;2023-03-02T05:22:03;49.70;;;22.38;;
47349;SDS011;33088;51.982;5.872;2023-03-02T05:24:28;53.75;;;23.13;;
47349;SDS011;33088;51.982;5.872;2023-03-02T05:26:54;54.72;;;23.15;;
47349;SDS011;33088;51.982;5.872;2023-03-02T05:29:20;59.15;;;23.98;;
47349;SDS011;33088;51.982;5.872;2023-03-02T05:31:46;53.65;;;23.67;;
47349;SDS011;33088;51.982;5.872;2023-03-02T05:34:12;56.17;;;24.48;;
47349;SDS011;33088;51.982;5.872;2023-03-02T05:36:40;54.85;;;24.60;;
47349;SDS011;33088;51.982;5.872;2023-03-02T05:39:07;48.67;;;23.17;;
47349;SDS011;33088;51.982;5.872;2023-03-02T05:41:33;64.13;;;26.10;;
47349;SDS011;33088;51.982;5.872;2023-03-02T05:44:00;52.80;;;23.85;;
47349;SDS011;33088;51.982;5.872;2023-03-02T05:46:26;54.65;;;23.95;;
47349;SDS011;33088;51.982;5.872;2023-03-02T05:48:52;50.33;;;23.75;;
47349;SDS011;33088;51.982;5.872;2023-03-02T05:51:18;57.17;;;24.65;;
47349;SDS011;33088;51.982;5.872;2023-03-02T05:53:43;59.58;;;24.65;;
47349;SDS011;33088;51.982;5.872;2023-03-02T05:56:09;52.95;;;24.92;;
47349;SDS011;33088;51.982;5.872;2023-03-02T05:58:35;62.50;;;25.35;;
47349;SDS011;33088;51.982;5.872;2023-03-02T06:01:01;66.53;;;26.38;;
47349;SDS011;33088;51.982;5.872;2023-03-02T06:03:26;56.42;;;24.50;;
47349;SDS011;33088;51.982;5.872;2023-03-02T06:05:52;53.55;;;23.95;;
47349;SDS011;33088;51.982;5.872;2023-03-02T06:08:18;54.88;;;22.42;;
47349;SDS011;33088;51.982;5.872;2023-03-02T06:10:45;57.25;;;23.02;;
47349;SDS011;33088;51.982;5.872;2023-03-02T06:13:11;59.40;;;25.15;;
47349;SDS011;33088;51.982;5.872;2023-03-02T06:15:37;57.88;;;23.45;;
47349;SDS011;33088;51.982;5.872;2023-03-02T06:18:04;55.72;;;24.75;;
47349;SDS011;33088;51.982;5.872;2023-03-02T06:20:30;61.00;;;24.60;;
47349;SDS011;33088;51.982;5.872;2023-03-02T06:22:56;54.45;;;24.08;;
47349;SDS011;33088;51.982;5.872;2023-03-02T06:25:22;53.67;;;23.95;;
47349;SDS011;33088;51.982;5.872;2023-03-02T06:27:48;61.53;;;26.20;;
47349;SDS011;33088;51.982;5.872;2023-03-02T06:30:16;51.15;;;22.65;;
47349;SDS011;33088;51.982;5.872;2023-03-02T06:32:43;54.00;;;22.42;;
47349;SDS011;33088;51.982;5.872;2023-03-02T06:35:10;54.95;;;22.85;;
47349;SDS011;33088;51.982;5.872;2023-03-02T06:37:37;55.30;;;23.38;;
47349;SDS011;33088;51.982;5.872;2023-03-02T06:40:04;56.60;;;24.00;;
47349;SDS011;33088;51.982;5.872;2023-03-02T06:42:37;53.45;;;22.33;;
47349;SDS011;33088;51.982;5.872;2023-03-02T06:45:04;48.97;;;22.48;;
47349;SDS011;33088;51.982;5.872;2023-03-02T06:47:31;54.40;;;22.73;;
47349;SDS011;33088;51.982;5.872;2023-03-02T06:49:58;54.15;;;24.15;;
47349;SDS011;33088;51.982;5.872;2023-03-02T06:52:24;49.00;;;21.25;;
47349;SDS011;33088;51.982;5.872;2023-03-02T06:54:51;60.45;;;25.30;;
47349;SDS011;33088;51.982;5.872;2023-03-02T06:57:17;55.35;;;24.58;;
47349;SDS011;33088;51.982;5.872;2023-03-02T06:59:43;57.10;;;24.13;;
47349;SDS011;33088;51.982;5.872;2023-03-02T07:02:09;52.53;;;24.38;;
47349;SDS011;33088;51.982;5.872;2023-03-02T07:04:35;50.38;;;22.42;;
47349;SDS011;33088;51.982;5.872;2023-03-02T07:07:01;62.67;;;23.30;;
47349;SDS011;33088;51.982;5.872;2023-03-02T07:09:26;60.67;;;23.52;;
47349;SDS011;33088;51.982;5.872;2023-03-02T07:11:54;50.55;;;22.45;;
47349;SDS011;33088;51.982;5.872;2023-03-02T07:14:21;53.67;;;21.33;;
47349;SDS011;33088;51.982;5.872;2023-03-02T07:16:48;52.83;;;22.90;;
47349;SDS011;33088;51.982;5.872;2023-03-02T07:19:15;49.88;;;20.95;;
47349;SDS011;33088;51.982;5.872;2023-03-02T07:21:40;53.90;;;24.48;;
47349;SDS011;33088;51.982;5.872;2023-03-02T07:24:06;53.08;;;22.45;;
47349;SDS011;33088;51.982;5.872;2023-03-02T07:26:32;54.42;;;22.55;;
47349;SDS011;33088;51.982;5.872;2023-03-02T07:28:58;48.85;;;21.80;;
47349;SDS011;33088;51.982;5.872;2023-03-02T07:31:24;50.42;;;21.25;;
47349;SDS011;33088;51.982;5.872;2023-03-02T07:33:50;52.55;;;21.05;;
47349;SDS011;33088;51.982;5.872;2023-03-02T07:36:16;51.88;;;23.58;;
47349;SDS011;33088;51.982;5.872;2023-03-02T07:38:41;50.28;;;21.33;;
47349;SDS011;33088;51.982;5.872;2023-03-02T07:41:07;46.67;;;19.10;;
47349;SDS011;33088;51.982;5.872;2023-03-02T07:43:34;46.70;;;21.48;;
47349;SDS011;33088;51.982;5.872;2023-03-02T07:46:01;42.15;;;18.73;;
47349;SDS011;33088;51.982;5.872;2023-03-02T07:48:28;38.05;;;18.05;;
47349;SDS011;33088;51.982;5.872;2023-03-02T07:51:01;41.17;;;20.00;;
47349;SDS011;33088;51.982;5.872;2023-03-02T07:53:28;39.97;;;17.77;;
47349;SDS011;33088;51.982;5.872;2023-03-02T07:55:55;41.35;;;18.15;;
47349;SDS011;33088;51.982;5.872;2023-03-02T07:58:20;42.40;;;18.75;;
47349;SDS011;33088;51.982;5.872;2023-03-02T08:00:47;44.42;;;19.27;;
47349;SDS011;33088;51.982;5.872;2023-03-02T08:03:13;42.78;;;18.83;;
47349;SDS011;33088;51.982;5.872;2023-03-02T08:05:38;46.58;;;17.67;;
47349;SDS011;33088;51.982;5.872;2023-03-02T08:08:04;39.67;;;18.90;;
47349;SDS011;33088;51.982;5.872;2023-03-02T08:10:32;44.05;;;19.10;;
47349;SDS011;33088;51.982;5.872;2023-03-02T08:12:58;44.03;;;20.45;;
47349;SDS011;33088;51.982;5.872;2023-03-02T08:15:24;41.10;;;17.58;;
47349;SDS011;33088;51.982;5.872;2023-03-02T08:17:50;41.45;;;17.70;;
47349;SDS011;33088;51.982;5.872;2023-03-02T08:20:15;35.60;;;16.88;;
47349;SDS011;33088;51.982;5.872;2023-03-02T08:22:41;38.95;;;17.75;;
47349;SDS011;33088;51.982;5.872;2023-03-02T08:25:07;40.58;;;16.50;;
47349;SDS011;33088;51.982;5.872;2023-03-02T08:27:32;41.05;;;16.40;;
47349;SDS011;33088;51.982;5.872;2023-03-02T08:29:58;37.35;;;15.60;;
47349;SDS011;33088;51.982;5.872;2023-03-02T08:32:24;37.00;;;16.65;;
47349;SDS011;33088;51.982;5.872;2023-03-02T08:34:50;35.08;;;17.27;;
47349;SDS011;33088;51.982;5.872;2023-03-02T08:37:16;38.72;;;15.70;;
47349;SDS011;33088;51.982;5.872;2023-03-02T08:39:43;38.90;;;15.90;;
47349;SDS011;33088;51.982;5.872;2023-03-02T08:42:08;36.35;;;15.98;;
47349;SDS011;33088;51.982;5.872;2023-03-02T08:44:34;35.83;;;15.02;;
47349;SDS011;33088;51.982;5.872;2023-03-02T08:47:00;33.33;;;14.60;;
47349;SDS011;33088;51.982;5.872;2023-03-02T08:49:25;41.50;;;16.08;;
47349;SDS011;33088;51.982;5.872;2023-03-02T08:51:51;35.17;;;15.85;;
47349;SDS011;33088;51.982;5.872;2023-03-02T08:54:20;42.47;;;16.85;;
47349;SDS011;33088;51.982;5.872;2023-03-02T08:56:46;31.00;;;15.40;;
47349;SDS011;33088;51.982;5.872;2023-03-02T08:59:13;36.08;;;15.43;;
47349;SDS011;33088;51.982;5.872;2023-03-02T09:01:39;37.00;;;16.48;;
47349;SDS011;33088;51.982;5.872;2023-03-02T09:04:06;30.42;;;15.70;;
47349;SDS011;33088;51.982;5.872;2023-03-02T09:06:35;37.80;;;16.63;;
47349;SDS011;33088;51.982;5.872;2023-03-02T09:09:03;35.28;;;14.13;;
47349;SDS011;33088;51.982;5.872;2023-03-02T09:11:30;39.80;;;15.60;;
47349;SDS011;33088;51.982;5.872;2023-03-02T09:13:55;35.67;;;15.73;;
47349;SDS011;33088;51.982;5.872;2023-03-02T09:16:21;31.15;;;14.60;;
47349;SDS011;33088;51.982;5.872;2023-03-02T09:18:50;38.05;;;16.40;;
47349;SDS011;33088;51.982;5.872;2023-03-02T09:21:17;40.00;;;15.98;;
47349;SDS011;33088;51.982;5.872;2023-03-02T09:23:43;32.70;;;15.80;;
47349;SDS011;33088;51.982;5.872;2023-03-02T09:26:08;35.17;;;16.38;;
47349;SDS011;33088;51.982;5.872;2023-03-02T09:28:34;30.88;;;15.13;;
47349;SDS011;33088;51.982;5.872;2023-03-02T09:31:02;33.72;;;16.20;;
47349;SDS011;33088;51.982;5.872;2023-03-02T09:33:30;35.95;;;16.67;;
47349;SDS011;33088;51.982;5.872;2023-03-02T09:35:55;38.10;;;16.83;;
47349;SDS011;33088;51.982;5.872;2023-03-02T09:38:21;37.22;;;15.75;;
47349;SDS011;33088;51.982;5.872;2023-03-02T09:51:27;34.25;;;15.73;;
47349;SDS011;33088;51.982;5.872;2023-03-02T09:54:10;37.72;;;17.13;;
47349;SDS011;33088;51.982;5.872;2023-03-02T09:56:42;35.88;;;16.27;;
47349;SDS011;33088;51.982;5.872;2023-03-02T10:02:27;35.50;;;14.52;;
47349;SDS011;33088;51.982;5.872;2023-03-02T10:05:13;32.55;;;15.00;;
47349;SDS011;33088;51.982;5.872;2023-03-02T10:07:43;28.45;;;14.77;;
47349;SDS011;33088;51.982;5.872;2023-03-02T10:18:12;29.50;;;14.63;;
47349;SDS011;33088;51.982;5.872;2023-03-02T10:20:48;29.73;;;13.32;;
47349;SDS011;33088;51.982;5.872;2023-03-02T10:26:05;29.63;;;13.98;;
47349;SDS011;33088;51.982;5.872;2023-03-02T10:28:54;27.42;;;13.23;;
47349;SDS011;33088;51.982;5.872;2023-03-02T10:31:30;27.60;;;13.25;;
47349;SDS011;33088;51.982;5.872;2023-03-02T10:33:57;29.30;;;14.07;;
47349;SDS011;33088;51.982;5.872;2023-03-02T10:36:24;24.65;;;13.07;;
47349;SDS011;33088;51.982;5.872;2023-03-02T10:38:52;22.88;;;11.75;;
47349;SDS011;33088;51.982;5.872;2023-03-02T10:41:21;25.45;;;12.90;;
47349;SDS011;33088;51.982;5.872;2023-03-02T10:43:58;21.88;;;11.25;;
47349;SDS011;33088;51.982;5.872;2023-03-02T10:46:43;22.13;;;12.32;;
47349;SDS011;33088;51.982;5.872;2023-03-02T10:51:56;20.30;;;11.13;;
47349;SDS011;33088;51.982;5.872;2023-03-02T10:54:26;23.27;;;11.23;;
47349;SDS011;33088;51.982;5.872;2023-03-02T10:56:54;22.83;;;12.45;;
47349;SDS011;33088;51.982;5.872;2023-03-02T11:02:22;20.50;;;10.75;;
47349;SDS011;33088;51.982;5.872;2023-03-02T11:07:56;25.55;;;12.13;;
47349;SDS011;33088;51.982;5.872;2023-03-02T11:10:23;22.95;;;11.07;;
47349;SDS011;33088;51.982;5.872;2023-03-02T11:12:53;19.00;;;9.75;;
47349;SDS011;33088;51.982;5.872;2023-03-02T11:18:00;20.50;;;10.20;;
47349;SDS011;33088;51.982;5.872;2023-03-02T11:20:47;20.80;;;10.88;;
47349;SDS011;33088;51.982;5.872;2023-03-02T11:23:21;20.85;;;10.90;;
47349;SDS011;33088;51.982;5.872;2023-03-02T11:26:08;19.25;;;10.43;;
47349;SDS011;33088;51.982;5.872;2023-03-02T11:28:48;18.38;;;10.35;;
47349;SDS011;33088;51.982;5.872;2023-03-02T11:31:40;18.55;;;11.07;;
47349;SDS011;33088;51.982;5.872;2023-03-02T11:42:18;18.35;;;9.88;;
47349;SDS011;33088;51.982;5.872;2023-03-02T11:47:20;18.10;;;10.35;;
47349;SDS011;33088;51.982;5.872;2023-03-02T11:49:56;18.15;;;10.25;;
47349;SDS011;33088;51.982;5.872;2023-03-02T11:52:29;19.00;;;10.13;;
47349;SDS011;33088;51.982;5.872;2023-03-02T11:57:44;18.20;;;9.77;;
47349;SDS011;33088;51.982;5.872;2023-03-02T12:00:30;21.02;;;11.38;;
47349;SDS011;33088;51.982;5.872;2023-03-02T12:03:19;18.10;;;10.32;;
47349;SDS011;33088;51.982;5.872;2023-03-02T12:05:57;15.85;;;9.80;;
47349;SDS011;33088;51.982;5.872;2023-03-02T12:11:27;18.83;;;10.25;;
47349;SDS011;33088;51.982;5.872;2023-03-02T12:13:59;18.85;;;9.77;;
47349;SDS011;33088;51.982;5.872;2023-03-02T12:21:59;18.13;;;9.88;;
47349;SDS011;33088;51.982;5.872;2023-03-02T12:24:32;18.60;;;11.25;;
47349;SDS011;33088;51.982;5.872;2023-03-02T12:27:07;17.13;;;9.90;;
47349;SDS011;33088;51.982;5.872;2023-03-02T12:29:54;16.33;;;10.07;;
47349;SDS011;33088;51.982;5.872;2023-03-02T12:32:32;18.02;;;11.07;;
47349;SDS011;33088;51.982;5.872;2023-03-02T12:34:59;18.77;;;9.88;;
47349;SDS011;33088;51.982;5.872;2023-03-02T12:37:40;15.65;;;9.23;;
47349;SDS011;33088;51.982;5.872;2023-03-02T12:43:24;19.38;;;9.50;;
47349;SDS011;33088;51.982;5.872;2023-03-02T12:48:30;17.73;;;10.95;;
47349;SDS011;33088;51.982;5.872;2023-03-02T12:51:04;22.15;;;11.27;;
47349;SDS011;33088;51.982;5.872;2023-03-02T12:53:36;16.77;;;9.85;;
47349;SDS011;33088;51.982;5.872;2023-03-02T12:56:03;18.60;;;10.15;;
47349;SDS011;33088;51.982;5.872;2023-03-02T12:58:31;18.60;;;10.23;;
47349;SDS011;33088;51.982;5.872;2023-03-02T13:01:01;16.25;;;9.88;;
47349;SDS011;33088;51.982;5.872;2023-03-02T13:03:28;18.27;;;10.48;;
47349;SDS011;33088;51.982;5.872;2023-03-02T13:06:02;18.08;;;10.98;;
47349;SDS011;33088;51.982;5.872;2023-03-02T13:08:29;17.92;;;9.55;;
47349;SDS011;33088;51.982;5.872;2023-03-02T13:10:56;20.02;;;10.07;;
47349;SDS011;33088;51.982;5.872;2023-03-02T13:13:26;19.58;;;9.77;;
47349;SDS011;33088;51.982;5.872;2023-03-02T13:16:00;17.75;;;9.88;;
47349;SDS011;33088;51.982;5.872;2023-03-02T13:18:36;18.75;;;10.02;;
47349;SDS011;33088;51.982;5.872;2023-03-02T13:21:03;16.42;;;9.52;;
47349;SDS011;33088;51.982;5.872;2023-03-02T13:23:31;19.88;;;11.00;;
47349;SDS011;33088;51.982;5.872;2023-03-02T13:25:58;20.40;;;10.27;;
47349;SDS011;33088;51.982;5.872;2023-03-02T13:28:35;22.92;;;9.98;;
47349;SDS011;33088;51.982;5.872;2023-03-02T13:31:04;16.80;;;8.77;;
47349;SDS011;33088;51.982;5.872;2023-03-02T13:33:49;14.27;;;8.85;;
47349;SDS011;33088;51.982;5.872;2023-03-02T13:36:17;18.17;;;9.88;;
47349;SDS011;33088;51.982;5.872;2023-03-02T13:38:46;16.67;;;8.93;;
47349;SDS011;33088;51.982;5.872;2023-03-02T13:41:24;16.40;;;9.70;;
47349;SDS011;33088;51.982;5.872;2023-03-02T13:43:54;16.75;;;8.88;;
47349;SDS011;33088;51.982;5.872;2023-03-02T13:48:58;18.80;;;9.85;;
47349;SDS011;33088;51.982;5.872;2023-03-02T13:51:25;16.20;;;9.27;;
47349;SDS011;33088;51.982;5.872;2023-03-02T13:53:58;15.52;;;9.02;;
47349;SDS011;33088;51.982;5.872;2023-03-02T13:56:29;13.27;;;8.70;;
47349;SDS011;33088;51.982;5.872;2023-03-02T13:58:57;14.85;;;8.20;;
47349;SDS011;33088;51.982;5.872;2023-03-02T14:01:23;16.85;;;9.48;;
47349;SDS011;33088;51.982;5.872;2023-03-02T14:03:50;13.73;;;8.60;;
47349;SDS011;33088;51.982;5.872;2023-03-02T14:06:15;16.67;;;9.93;;
47349;SDS011;33088;51.982;5.872;2023-03-02T14:08:43;15.20;;;7.90;;
47349;SDS011;33088;51.982;5.872;2023-03-02T14:11:10;15.98;;;9.38;;
47349;SDS011;33088;51.982;5.872;2023-03-02T14:13:42;19.70;;;9.95;;
47349;SDS011;33088;51.982;5.872;2023-03-02T14:16:12;15.70;;;9.23;;
47349;SDS011;33088;51.982;5.872;2023-03-02T14:18:43;17.65;;;9.52;;
47349;SDS011;33088;51.982;5.872;2023-03-02T14:21:16;16.00;;;8.52;;
47349;SDS011;33088;51.982;5.872;2023-03-02T14:23:44;10.25;;;7.03;;
47349;SDS011;33088;51.982;5.872;2023-03-02T14:26:18;13.10;;;8.50;;
47349;SDS011;33088;51.982;5.872;2023-03-02T14:28:53;14.75;;;8.18;;
47349;SDS011;33088;51.982;5.872;2023-03-02T14:31:19;14.05;;;8.48;;
47349;SDS011;33088;51.982;5.872;2023-03-02T14:33:45;12.15;;;8.32;;
47349;SDS011;33088;51.982;5.872;2023-03-02T14:36:19;16.42;;;9.95;;
47349;SDS011;33088;51.982;5.872;2023-03-02T14:38:51;15.68;;;9.63;;
47349;SDS011;33088;51.982;5.872;2023-03-02T14:41:21;17.00;;;10.00;;
47349;SDS011;33088;51.982;5.872;2023-03-02T14:43:48;15.70;;;8.77;;
47349;SDS011;33088;51.982;5.872;2023-03-02T14:46:14;16.17;;;10.18;;
47349;SDS011;33088;51.982;5.872;2023-03-02T14:48:40;15.90;;;8.93;;
47349;SDS011;33088;51.982;5.872;2023-03-02T14:51:39;15.00;;;8.73;;
47349;SDS011;33088;51.982;5.872;2023-03-02T14:54:01;14.65;;;8.85;;
47349;SDS011;33088;51.982;5.872;2023-03-02T14:56:29;14.63;;;8.48;;
47349;SDS011;33088;51.982;5.872;2023-03-02T14:58:56;13.60;;;7.97;;
47349;SDS011;33088;51.982;5.872;2023-03-02T15:01:24;15.07;;;8.65;;
47349;SDS011;33088;51.982;5.872;2023-03-02T15:03:49;13.68;;;8.73;;
47349;SDS011;33088;51.982;5.872;2023-03-02T15:06:37;19.13;;;9.55;;
47349;SDS011;33088;51.982;5.872;2023-03-02T15:09:05;16.38;;;9.20;;
47349;SDS011;33088;51.982;5.872;2023-03-02T15:11:32;16.20;;;8.50;;
47349;SDS011;33088;51.982;5.872;2023-03-02T15:13:57;15.73;;;9.43;;
47349;SDS011;33088;51.982;5.872;2023-03-02T15:16:23;16.58;;;9.55;;
47349;SDS011;33088;51.982;5.872;2023-03-02T15:18:49;16.08;;;9.10;;
47349;SDS011;33088;51.982;5.872;2023-03-02T15:21:18;14.05;;;8.38;;
47349;SDS011;33088;51.982;5.872;2023-03-02T15:23:45;16.38;;;8.55;;
47349;SDS011;33088;51.982;5.872;2023-03-02T15:26:11;16.88;;;8.32;;
47349;SDS011;33088;51.982;5.872;2023-03-02T15:28:37;16.58;;;8.90;;
47349;SDS011;33088;51.982;5.872;2023-03-02T15:31:10;15.18;;;8.85;;
47349;SDS011;33088;51.982;5.872;2023-03-02T15:33:38;14.73;;;9.82;;
47349;SDS011;33088;51.982;5.872;2023-03-02T15:36:04;17.20;;;9.85;;
47349;SDS011;33088;51.982;5.872;2023-03-02T15:38:31;15.10;;;8.80;;
47349;SDS011;33088;51.982;5.872;2023-03-02T15:41:02;13.65;;;9.32;;
47349;SDS011;33088;51.982;5.872;2023-03-02T15:43:29;16.88;;;9.10;;
47349;SDS011;33088;51.982;5.872;2023-03-02T15:45:54;14.43;;;8.00;;
47349;SDS011;33088;51.982;5.872;2023-03-02T15:48:20;15.90;;;9.40;;